This demonstration page uses our WeatherBlox Daily Observations layout. Learn more.

38.89511, -77.03637

Hourly Observations for July 16, 2017

Temp ( °F °C ) Dew Point ( °F °C ) Humidity (%) Winds ( mph kmh ) Pressure ( in mb ) Visibility ( mi km ) Precip ( " mm )
12:52 am 00:52 Partly Cloudy 77 25 63 17.2 62 62 NNW 7 11 29.97 1015 10 16.09344 0 0
1:52 am 01:52 Partly Cloudy 76 24.4 63 17.2 64 64 NNW 9 15 29.97 1015 10 16.09344 0 0
2:52 am 02:52 Partly Cloudy 75 23.9 63 17.2 66 66 NNW 9 15 29.97 1015 10 16.09344 0 0
3:52 am 03:52 Mostly Clear 72 22.2 63 17.2 73 73 NNW 7 11 29.97 1015 10 16.09344 0 0
4:52 am 04:52 Mostly Clear 73 22.8 62 16.7 69 69 Calm 29.97 1015 10 16.09344 0 0
5:52 am 05:52 Mostly Clear 71 21.7 63 17.2 76 76 NW 6 9 29.97 1015 10 16.09344 0 0
6:52 am 06:52 Mostly Sunny 73 22.8 65 18.3 76 76 N 3 6 30 1016 10 16.09344 0 0
7:52 am 07:52 Mostly Sunny 76 24.4 63 17.2 64 64 NNW 5 7 30 1016 10 16.09344 0 0
8:52 am 08:52 Mostly Sunny 78 25.6 64 17.8 62 62 N 7 11 30 1016 10 16.09344 0 0
9:52 am 09:52 Mostly Sunny 80 26.7 61 16.1 52 52 N 6 9 30 1016 10 16.09344 0 0
10:52 am 10:52 Mostly Sunny 82 27.8 63 17.2 53 53 NW 6 9 30 1016 10 16.09344 0 0
11:52 am 11:52 Partly Cloudy 84 28.9 63 17.2 49 49 NNW 9 15 29.97 1015 10 16.09344 0 0
12:52 pm 12:52 Partly Cloudy 85 29.4 64 17.8 50 50 N 9 15 29.97 1015 10 16.09344 0 0
1:52 pm 13:52 Mostly Cloudy 85 29.4 64 17.8 50 50 N 10 17 29.97 1015 10 16.09344 0 0
2:52 pm 14:52 Partly Cloudy 86 30 64 17.8 48 48 N 7 11 29.94 1014 10 16.09344 0 0
3:52 pm 15:52 Partly Cloudy 89 31.7 65 18.3 45 45 WNW 3 6 29.94 1014 10 16.09344 0 0
4:52 pm 16:52 Mostly Cloudy 88 31.1 65 18.3 46 46 N 7 11 29.94 1014 10 16.09344 0 0
5:52 pm 17:52 Partly Cloudy 88 31.1 65 18.3 46 46 ENE 5 7 29.91 1013 10 16.09344 0 0
6:52 pm 18:52 Partly Cloudy 87 30.6 63 17.2 45 45 SSE 3 6 29.91 1013 10 16.09344 0 0
7:52 pm 19:52 Partly Cloudy 85 29.4 69 20.6 59 59 ESE 10 17 29.94 1014 10 16.09344 0 0
8:52 pm 20:52 Partly Cloudy 82 27.8 70 21.1 67 67 ESE 8 13 29.94 1014 10 16.09344 0 0
9:52 pm 21:52 Partly Cloudy 81 27.2 71 21.7 72 72 SE 10 17 29.97 1015 10 16.09344 0 0
10:52 pm 22:52 Partly Cloudy 80 26.7 71 21.7 74 74 S 9 15 29.97 1015 8 12.874752 0 0
11:52 pm 23:52 Partly Cloudy 80 26.7 70 21.1 71 71 S 9 15 29.97 1015 10 16.09344 0 0

Powered by AerisWeather